createdAt,value
2019-01-12T00:01:35.050Z,3.77
2019-01-12T00:04:03.167Z,2.80
2019-01-12T00:06:31.712Z,3.90
2019-01-12T00:09:00.200Z,3.43
2019-01-12T00:11:28.312Z,2.63
2019-01-12T00:13:56.564Z,3.00
2019-01-12T00:16:24.841Z,3.10
2019-01-12T00:18:53.389Z,2.93
2019-01-12T00:21:21.547Z,3.33
2019-01-12T00:23:49.287Z,3.00
2019-01-12T00:26:17.684Z,3.00
2019-01-12T00:28:45.559Z,2.90
2019-01-12T00:31:13.740Z,2.50
2019-01-12T00:33:41.116Z,3.40
2019-01-12T00:36:09.258Z,2.73
2019-01-12T00:38:37.322Z,2.87
2019-01-12T00:41:05.484Z,3.37
2019-01-12T00:43:33.175Z,3.20
2019-01-12T00:46:01.583Z,3.33
2019-01-12T00:48:29.659Z,2.97
2019-01-12T00:50:57.828Z,3.07
2019-01-12T00:53:25.910Z,3.20
2019-01-12T00:55:54.072Z,3.30
2019-01-12T00:58:22.264Z,3.17
2019-01-12T01:00:50.342Z,3.13
2019-01-12T01:03:18.810Z,2.93
2019-01-12T01:05:46.974Z,3.07
2019-01-12T01:08:15.489Z,3.50
2019-01-12T01:10:43.586Z,3.17
2019-01-12T01:13:11.747Z,3.30
2019-01-12T01:15:39.117Z,3.27
2019-01-12T01:18:06.896Z,3.00
2019-01-12T01:20:35.366Z,2.60
2019-01-12T01:23:03.941Z,2.20
2019-01-12T01:25:31.764Z,3.47
2019-01-12T01:27:59.806Z,2.70
2019-01-12T01:30:27.966Z,2.50
2019-01-12T01:32:56.160Z,2.77
2019-01-12T01:35:23.595Z,2.73
2019-01-12T01:37:52.041Z,2.93
2019-01-12T01:40:20.353Z,2.67
2019-01-12T01:42:48.911Z,3.07
2019-01-12T01:45:17.387Z,2.57
2019-01-12T01:47:45.592Z,2.50
2019-01-12T01:50:54.289Z,2.43
2019-01-12T01:53:22.337Z,2.43
2019-01-12T01:55:50.812Z,2.93
2019-01-12T01:58:19.004Z,2.33
2019-01-12T02:00:47.178Z,2.60
2019-01-12T02:03:14.942Z,2.63
2019-01-12T02:05:43.026Z,2.50
2019-01-12T02:08:11.512Z,2.77
2019-01-12T02:10:39.629Z,3.00
2019-01-12T02:13:07.452Z,2.73
2019-01-12T02:15:36.040Z,3.03
2019-01-12T02:18:04.424Z,2.80
2019-01-12T02:20:33.010Z,2.90
2019-01-12T02:23:01.414Z,3.30
2019-01-12T02:25:29.519Z,2.60
2019-01-12T02:27:58.076Z,2.70
2019-01-12T02:30:25.817Z,2.70
2019-01-12T02:32:54.484Z,2.80
2019-01-12T02:35:23.015Z,2.83
2019-01-12T02:37:50.991Z,3.03
2019-01-12T02:40:19.453Z,2.70
2019-01-12T02:42:47.569Z,2.83
2019-01-12T02:45:15.770Z,2.80
2019-01-12T02:47:43.866Z,3.30
2019-01-12T02:50:52.433Z,2.63
2019-01-12T02:53:20.903Z,2.70
2019-01-12T02:55:49.317Z,2.70
2019-01-12T02:58:18.452Z,2.87
2019-01-12T03:00:47.073Z,2.97
2019-01-12T03:03:15.491Z,3.23
2019-01-12T03:05:43.655Z,2.80
2019-01-12T03:08:12.147Z,2.90
2019-01-12T03:10:39.897Z,3.10
2019-01-12T03:13:08.079Z,3.03
2019-01-12T03:15:36.626Z,2.60
2019-01-12T03:18:03.970Z,3.00
2019-01-12T03:20:32.325Z,2.63
2019-01-12T03:23:00.810Z,3.27
2019-01-12T03:25:28.977Z,2.97
2019-01-12T03:27:57.044Z,3.50
2019-01-12T03:30:25.379Z,3.57
2019-01-12T03:32:53.520Z,3.50
2019-01-12T03:35:21.912Z,3.30
2019-01-12T03:37:50.075Z,3.00
2019-01-12T03:40:19.224Z,3.40
2019-01-12T03:42:47.687Z,3.30
2019-01-12T03:45:16.719Z,3.70
2019-01-12T03:47:44.742Z,3.33
2019-01-12T03:50:13.241Z,3.93
2019-01-12T03:52:41.059Z,3.83
2019-01-12T03:55:49.488Z,4.17
2019-01-12T03:58:18.015Z,3.37
2019-01-12T04:00:45.860Z,3.27
2019-01-12T04:03:14.343Z,3.83
2019-01-12T04:05:42.424Z,2.70
2019-01-12T04:08:10.903Z,3.10
2019-01-12T04:10:39.299Z,2.77
2019-01-12T04:13:07.679Z,3.77
2019-01-12T04:15:35.866Z,3.80
2019-01-12T04:18:04.046Z,2.90
2019-01-12T04:20:32.103Z,4.47
2019-01-12T04:23:00.518Z,4.70
2019-01-12T04:25:33.557Z,2.70
2019-01-12T04:27:58.894Z,3.30
2019-01-12T04:30:27.400Z,3.80
2019-01-12T04:32:55.115Z,3.83
2019-01-12T04:35:23.585Z,2.87
2019-01-12T04:37:51.767Z,2.63
2019-01-12T04:40:20.325Z,2.97
2019-01-12T04:42:48.393Z,3.30
2019-01-12T04:45:16.508Z,3.00
2019-01-12T04:47:44.970Z,3.40
2019-01-12T04:50:14.082Z,3.27
2019-01-12T04:52:42.251Z,3.60
2019-01-12T04:55:10.408Z,3.17
2019-01-12T04:57:38.916Z,2.83
2019-01-12T05:00:09.323Z,2.67
2019-01-12T05:02:37.457Z,2.50
2019-01-12T05:05:05.699Z,2.80
2019-01-12T05:07:40.841Z,2.70
2019-01-12T05:10:09.123Z,2.80
2019-01-12T05:12:37.230Z,2.77
2019-01-12T05:15:06.729Z,2.90
2019-01-12T05:17:34.747Z,2.87
2019-01-12T05:20:03.060Z,2.50
2019-01-12T05:22:31.446Z,1.77
2019-01-12T05:24:59.922Z,4.10
2019-01-12T05:27:28.046Z,2.03
2019-01-12T05:29:55.777Z,2.03
2019-01-12T05:32:24.303Z,2.40
2019-01-12T05:34:52.649Z,1.97
2019-01-12T05:37:21.134Z,2.40
2019-01-12T05:39:49.556Z,2.30
2019-01-12T05:42:17.940Z,1.93
2019-01-12T05:44:46.011Z,2.70
2019-01-12T05:47:14.065Z,2.00
2019-01-12T05:49:42.532Z,3.00
2019-01-12T05:52:10.963Z,2.57
2019-01-12T05:54:38.784Z,4.17
2019-01-12T05:57:06.917Z,6.17
2019-01-12T05:59:35.378Z,4.67
2019-01-12T06:02:03.432Z,2.30
2019-01-12T06:04:31.625Z,2.70
2019-01-12T06:07:00.042Z,2.20
2019-01-12T06:09:28.096Z,2.40
2019-01-12T06:11:56.192Z,2.00
2019-01-12T06:14:24.342Z,1.77
2019-01-12T06:16:51.734Z,1.90
2019-01-12T06:19:19.873Z,2.00
2019-01-12T06:21:48.302Z,2.10
2019-01-12T06:24:16.748Z,1.93
2019-01-12T06:26:44.909Z,1.90
2019-01-12T06:29:13.319Z,2.13
2019-01-12T06:31:41.710Z,2.23
2019-01-12T06:34:09.711Z,2.50
2019-01-12T06:36:37.893Z,2.30
2019-01-12T06:39:48.352Z,2.23
2019-01-12T06:42:16.103Z,3.07
2019-01-12T06:44:44.353Z,2.27
2019-01-12T06:47:12.833Z,2.87
2019-01-12T06:49:40.962Z,2.10
2019-01-12T06:52:09.423Z,2.40
2019-01-12T06:54:37.222Z,2.47
2019-01-12T06:57:05.243Z,3.77
2019-01-12T06:59:34.292Z,4.53
2019-01-12T07:02:03.395Z,4.33
2019-01-12T07:04:31.471Z,2.57
2019-01-12T07:06:59.611Z,2.80
2019-01-12T07:09:28.092Z,3.37
2019-01-12T07:11:56.162Z,3.70
2019-01-12T07:14:24.591Z,5.53
2019-01-12T07:16:52.730Z,4.33
2019-01-12T07:19:21.216Z,3.50
2019-01-12T07:21:49.703Z,3.93
2019-01-12T07:24:17.888Z,7.07
2019-01-12T07:26:46.370Z,3.40
2019-01-12T07:29:14.417Z,3.90
2019-01-12T07:31:42.951Z,3.40
2019-01-12T07:34:11.447Z,2.80
2019-01-12T07:36:39.945Z,3.50
2019-01-12T07:39:08.550Z,3.53
2019-01-12T07:41:36.602Z,3.93
2019-01-12T07:44:04.375Z,4.63
2019-01-12T07:46:32.837Z,3.87
2019-01-12T07:49:00.920Z,3.70
2019-01-12T07:51:29.015Z,4.40
2019-01-12T07:53:57.058Z,6.70
2019-01-12T07:56:24.896Z,7.30
2019-01-12T07:58:53.311Z,4.43
2019-01-12T08:01:21.406Z,4.73
2019-01-12T08:03:49.886Z,3.67
2019-01-12T08:06:18.408Z,3.57
2019-01-12T08:08:46.794Z,4.37
2019-01-12T08:11:14.956Z,4.00
2019-01-12T08:13:43.119Z,3.03
2019-01-12T08:16:11.521Z,3.20
2019-01-12T08:18:39.672Z,3.47
2019-01-12T08:21:08.182Z,3.00
2019-01-12T08:23:36.015Z,3.40
2019-01-12T08:26:04.730Z,3.70
2019-01-12T08:28:32.798Z,4.80
2019-01-12T08:31:01.918Z,4.20
2019-01-12T08:33:30.602Z,5.97
2019-01-12T08:35:58.699Z,3.47
2019-01-12T08:38:26.391Z,5.00
2019-01-12T08:41:14.083Z,4.97
2019-01-12T08:44:22.679Z,2.73
2019-01-12T08:46:50.807Z,4.37
2019-01-12T08:49:19.236Z,10.27
2019-01-12T08:51:47.725Z,8.13
2019-01-12T08:54:15.918Z,4.23
2019-01-12T08:57:24.319Z,8.70
2019-01-12T08:59:52.806Z,7.43
2019-01-12T09:02:21.506Z,7.50
2019-01-12T09:05:29.770Z,5.43
2019-01-12T09:07:57.829Z,6.20
2019-01-12T09:10:26.423Z,4.40
2019-01-12T09:12:55.150Z,2.90
2019-01-12T09:15:24.128Z,3.80
2019-01-12T09:18:11.184Z,3.20
2019-01-12T09:20:58.561Z,3.13
2019-01-12T09:23:26.666Z,3.20
2019-01-12T09:25:54.821Z,5.03
2019-01-12T09:28:22.993Z,5.70
2019-01-12T09:30:50.809Z,3.60
2019-01-12T09:33:19.563Z,4.83
2019-01-12T09:35:47.393Z,5.43
2019-01-12T09:38:16.019Z,2.97
2019-01-12T09:40:44.471Z,3.07
2019-01-12T09:43:13.271Z,3.20
2019-01-12T09:45:42.234Z,4.70
2019-01-12T09:48:10.438Z,3.90
2019-01-12T09:50:39.006Z,6.97
2019-01-12T09:53:07.101Z,4.00
2019-01-12T09:55:35.829Z,5.00
2019-01-12T09:58:03.569Z,3.57
2019-01-12T10:00:32.222Z,2.60
2019-01-12T10:03:01.089Z,4.20
2019-01-12T10:08:17.202Z,2.23
2019-01-12T10:11:05.012Z,3.33
2019-01-12T10:13:33.636Z,3.17
2019-01-12T10:16:01.051Z,3.90
2019-01-12T10:18:29.489Z,3.63
2019-01-12T10:20:58.002Z,3.50
2019-01-12T10:23:26.608Z,3.33
2019-01-12T10:25:55.047Z,3.40
2019-01-12T10:28:23.527Z,4.10
2019-01-12T10:30:51.752Z,2.87
2019-01-12T10:33:19.547Z,3.93
2019-01-12T10:35:47.706Z,4.50
2019-01-12T10:38:16.219Z,2.80
2019-01-12T10:40:45.077Z,3.17
2019-01-12T10:43:13.531Z,6.03
2019-01-12T10:48:16.444Z,5.27
2019-01-12T10:50:45.182Z,3.60
2019-01-12T10:53:13.758Z,4.63
2019-01-12T10:55:41.648Z,4.40
2019-01-12T10:58:11.316Z,2.90
2019-01-12T11:00:39.675Z,2.40
2019-01-12T11:03:08.168Z,3.90
2019-01-12T11:05:36.662Z,3.60
2019-01-12T11:08:05.187Z,3.23
2019-01-12T11:10:33.506Z,2.13
2019-01-12T11:13:02.807Z,2.13
2019-01-12T11:15:30.698Z,6.03
2019-01-12T11:17:59.226Z,4.10
2019-01-12T11:20:27.885Z,5.70
2019-01-12T11:22:55.733Z,5.63
2019-01-12T11:25:25.985Z,3.53
2019-01-12T11:27:54.777Z,2.47
2019-01-12T11:33:12.606Z,2.40
2019-01-12T11:35:40.719Z,2.33
2019-01-12T11:38:08.877Z,2.30
2019-01-12T11:40:37.327Z,2.90
2019-01-12T11:43:05.230Z,3.23
2019-01-12T11:45:33.430Z,2.80
2019-01-12T11:48:01.944Z,2.40
2019-01-12T11:50:30.618Z,2.80
2019-01-12T11:52:58.602Z,2.00
2019-01-12T11:55:26.333Z,4.13
2019-01-12T11:57:54.858Z,4.00
2019-01-12T12:00:27.512Z,14.03
2019-01-12T12:02:55.693Z,3.70
2019-01-12T12:05:23.957Z,3.30
2019-01-12T12:07:52.329Z,8.00
2019-01-12T12:10:20.625Z,8.37
2019-01-12T12:12:49.207Z,3.63
2019-01-12T12:18:12.097Z,5.60
2019-01-12T12:20:39.832Z,4.97
2019-01-12T12:23:07.708Z,6.23
2019-01-12T12:25:35.843Z,5.93
2019-01-12T12:28:04.294Z,3.80
2019-01-12T12:30:32.417Z,3.53
2019-01-12T12:33:00.512Z,3.90
2019-01-12T12:35:28.503Z,3.60
2019-01-12T12:37:56.940Z,3.73
2019-01-12T12:41:05.281Z,3.73
2019-01-12T12:43:34.063Z,4.07
2019-01-12T12:46:02.214Z,3.70
2019-01-12T12:48:30.612Z,3.37
2019-01-12T12:50:58.662Z,4.27
2019-01-12T12:53:26.917Z,3.73
2019-01-12T12:55:55.404Z,3.70
2019-01-12T12:58:23.830Z,3.43
2019-01-12T13:00:51.973Z,3.57
2019-01-12T13:03:20.757Z,3.70
2019-01-12T13:05:49.238Z,3.57
2019-01-12T13:08:17.081Z,3.13
2019-01-12T13:10:45.397Z,2.90
2019-01-12T13:13:14.084Z,2.87
2019-01-12T13:16:02.058Z,2.57
2019-01-12T13:18:31.106Z,2.27
2019-01-12T13:23:54.823Z,2.50
2019-01-12T13:27:03.144Z,2.93
2019-01-12T13:30:11.394Z,2.40
2019-01-12T13:32:58.840Z,2.60
2019-01-12T13:35:27.197Z,2.80
2019-01-12T13:38:35.733Z,3.13
2019-01-12T13:41:44.123Z,2.60
2019-01-12T13:44:12.737Z,3.70
2019-01-12T13:46:40.898Z,2.33
2019-01-12T13:49:28.979Z,2.57
2019-01-12T13:52:17.409Z,3.30
2019-01-12T13:55:24.994Z,3.70
2019-01-12T13:57:53.123Z,4.80
2019-01-12T14:00:40.309Z,6.93
2019-01-12T14:03:49.060Z,6.57
2019-01-12T14:06:17.702Z,5.50
2019-01-12T14:08:46.599Z,3.33
2019-01-12T14:11:55.243Z,3.40
2019-01-12T14:14:23.499Z,2.83
2019-01-12T14:16:51.414Z,2.70
2019-01-12T14:19:19.643Z,4.37
2019-01-12T14:24:56.718Z,3.63
2019-01-12T14:27:24.518Z,3.93
2019-01-12T14:29:52.968Z,2.70
2019-01-12T14:32:21.468Z,3.93
2019-01-12T14:34:53.691Z,6.30
2019-01-12T14:37:22.639Z,4.80
2019-01-12T14:43:07.039Z,2.43
2019-01-12T14:46:15.323Z,2.37
2019-01-12T14:48:44.453Z,3.40
2019-01-12T14:54:38.632Z,3.13
2019-01-12T14:57:07.216Z,3.00
2019-01-12T14:59:36.545Z,3.03
2019-01-12T15:02:24.839Z,3.00
2019-01-12T15:04:53.130Z,2.60
2019-01-12T15:07:21.654Z,2.90
2019-01-12T15:09:49.740Z,2.67
2019-01-12T15:12:18.930Z,2.63
2019-01-12T15:18:21.390Z,3.47
2019-01-12T15:23:56.163Z,3.57
2019-01-12T15:26:43.137Z,2.83
2019-01-12T15:29:11.671Z,2.27
2019-01-12T15:31:39.916Z,3.20
2019-01-12T15:34:08.034Z,2.90
2019-01-12T15:36:36.229Z,2.60
2019-01-12T15:39:07.658Z,2.63
2019-01-12T15:41:35.712Z,2.50
2019-01-12T15:44:03.564Z,2.73
2019-01-12T15:46:31.744Z,2.70
2019-01-12T15:48:59.833Z,3.43
2019-01-12T15:51:28.540Z,3.97
2019-01-12T15:53:56.540Z,3.10
2019-01-12T15:59:20.114Z,2.83
2019-01-12T16:02:07.955Z,3.67
2019-01-12T16:04:36.846Z,3.80
2019-01-12T16:12:33.923Z,5.13
2019-01-12T16:15:02.495Z,3.80
2019-01-12T16:17:30.672Z,6.30
2019-01-12T16:19:58.870Z,6.17
2019-01-12T16:22:27.342Z,5.30
2019-01-12T16:24:55.511Z,4.40
2019-01-12T16:27:24.015Z,4.10
2019-01-12T16:29:52.447Z,3.20
2019-01-12T16:32:20.665Z,3.53
2019-01-12T16:34:49.259Z,2.70
2019-01-12T16:37:17.460Z,2.70
2019-01-12T16:39:45.342Z,3.20
2019-01-12T16:42:13.184Z,3.23
2019-01-12T16:44:41.777Z,3.23
2019-01-12T16:47:10.010Z,3.70
2019-01-12T16:49:38.132Z,3.30
2019-01-12T16:52:06.254Z,3.30
2019-01-12T16:54:34.795Z,3.33
2019-01-12T16:57:03.401Z,3.27
2019-01-12T16:59:31.674Z,2.97
2019-01-12T17:02:00.154Z,3.13
2019-01-12T17:04:27.794Z,3.37
2019-01-12T17:06:55.864Z,3.33
2019-01-12T17:09:23.979Z,3.20
2019-01-12T17:11:52.162Z,3.13
2019-01-12T17:14:20.274Z,2.60
2019-01-12T17:16:48.925Z,3.10
2019-01-12T17:19:16.698Z,2.93
2019-01-12T17:21:45.233Z,2.80
2019-01-12T17:24:13.608Z,2.97
2019-01-12T17:26:41.370Z,3.70
2019-01-12T17:29:09.949Z,3.93
2019-01-12T17:31:38.006Z,3.07
2019-01-12T17:34:06.715Z,3.10
2019-01-12T17:45:01.018Z,2.50
2019-01-12T17:47:29.292Z,2.80
2019-01-12T17:49:57.205Z,2.53
2019-01-12T17:52:25.620Z,3.00
2019-01-12T17:54:53.746Z,2.60
2019-01-12T17:58:02.337Z,2.53
2019-01-12T18:00:50.293Z,2.43
2019-01-12T18:03:19.025Z,3.20
2019-01-12T18:06:07.236Z,2.13
2019-01-12T18:08:35.451Z,2.43
2019-01-12T18:11:03.693Z,2.90
2019-01-12T18:13:32.150Z,3.70
2019-01-12T18:16:01.453Z,3.10
2019-01-12T18:19:10.105Z,3.10
2019-01-12T18:24:26.312Z,2.97
2019-01-12T18:27:34.846Z,2.60
2019-01-12T18:30:03.350Z,3.17
2019-01-12T18:32:50.415Z,3.17
2019-01-12T18:35:20.254Z,2.90
2019-01-12T18:37:48.788Z,2.67
2019-01-12T18:40:17.413Z,2.27
2019-01-12T18:42:46.594Z,3.17
2019-01-12T18:45:16.185Z,3.37
2019-01-12T18:47:44.329Z,2.57
2019-01-12T18:50:16.249Z,2.87
2019-01-12T18:55:53.393Z,2.20
2019-01-12T18:58:42.890Z,3.80
2019-01-12T19:01:11.623Z,2.60
2019-01-12T19:03:40.369Z,2.33
2019-01-12T19:06:10.015Z,2.30
2019-01-12T19:08:38.669Z,2.20
2019-01-12T19:11:07.370Z,2.23
2019-01-12T19:13:55.229Z,2.00
2019-01-12T19:16:24.283Z,2.33
2019-01-12T19:19:11.365Z,2.00
2019-01-12T19:21:39.152Z,2.27
2019-01-12T19:24:07.222Z,1.90
2019-01-12T19:27:16.065Z,1.90
2019-01-12T19:29:44.604Z,2.07
2019-01-12T19:32:54.071Z,2.27
2019-01-12T19:35:42.039Z,2.30
2019-01-12T19:38:30.239Z,2.10
2019-01-12T19:41:18.431Z,1.80
2019-01-12T19:43:47.593Z,2.33
2019-01-12T19:46:56.343Z,2.07
2019-01-12T19:49:44.181Z,2.10
2019-01-12T19:52:12.714Z,2.43
2019-01-12T19:54:41.788Z,1.87
2019-01-12T19:57:30.132Z,1.80
2019-01-12T20:00:01.685Z,1.70
2019-01-12T20:02:50.083Z,2.93
2019-01-12T20:05:38.257Z,2.50
2019-01-12T20:08:07.154Z,4.17
2019-01-12T20:10:57.875Z,6.63
2019-01-12T20:13:26.468Z,3.77
2019-01-12T20:15:55.604Z,3.97
2019-01-12T20:18:24.496Z,2.10
2019-01-12T20:20:53.163Z,1.83
2019-01-12T20:23:22.329Z,1.67
2019-01-12T20:25:51.257Z,1.50
2019-01-12T20:28:21.322Z,1.57
2019-01-12T20:31:27.930Z,1.70
2019-01-12T20:34:34.158Z,1.40
2019-01-12T20:37:42.056Z,1.27
2019-01-12T20:41:02.205Z,1.40
2019-01-12T20:43:57.926Z,1.20
2019-01-12T20:47:04.579Z,1.20
2019-01-12T20:50:10.886Z,1.10
2019-01-12T20:53:11.425Z,0.80
2019-01-12T20:56:17.792Z,1.10
2019-01-12T20:59:28.312Z,1.10
2019-01-12T21:02:33.166Z,0.97
2019-01-12T21:05:23.892Z,1.10
2019-01-12T21:08:31.362Z,1.07
2019-01-12T21:11:37.771Z,1.33
2019-01-12T21:14:44.135Z,1.17
2019-01-12T21:17:16.226Z,1.30
2019-01-12T21:22:53.365Z,1.00
2019-01-12T21:25:22.069Z,1.03
2019-01-12T21:27:50.451Z,0.80
2019-01-12T21:33:09.322Z,0.60
2019-01-12T21:35:38.170Z,0.80
2019-01-12T21:38:06.964Z,1.10
2019-01-12T21:40:35.199Z,1.10
2019-01-12T21:43:04.114Z,1.10
2019-01-12T21:45:33.306Z,0.80
2019-01-12T21:48:01.490Z,0.73
2019-01-12T21:50:28.851Z,0.80
2019-01-12T21:53:16.754Z,0.50
2019-01-12T21:55:45.575Z,0.70
2019-01-12T21:58:33.340Z,0.53
2019-01-12T22:01:01.787Z,0.87
2019-01-12T22:03:30.015Z,0.80
2019-01-12T22:06:19.693Z,1.30
2019-01-12T22:08:47.404Z,0.60
2019-01-12T22:11:55.507Z,0.90
2019-01-12T22:14:23.197Z,0.80
2019-01-12T22:16:51.346Z,0.70
2019-01-12T22:19:19.606Z,1.20
2019-01-12T22:22:27.393Z,0.50
2019-01-12T22:24:55.586Z,0.70
2019-01-12T22:27:23.711Z,1.40
2019-01-12T22:30:32.193Z,1.43
2019-01-12T22:33:40.750Z,1.20
2019-01-12T22:36:08.937Z,0.80
2019-01-12T22:38:37.018Z,1.50
2019-01-12T22:41:05.607Z,1.70
2019-01-12T22:43:33.416Z,1.60
2019-01-12T22:46:01.607Z,1.10
2019-01-12T22:48:30.019Z,1.57
2019-01-12T22:50:58.232Z,3.40
2019-01-12T22:53:26.583Z,2.30
2019-01-12T22:55:55.130Z,2.00
2019-01-12T22:58:23.586Z,2.70
2019-01-12T23:01:34.417Z,1.00
2019-01-12T23:04:02.484Z,0.93
2019-01-12T23:06:30.642Z,1.63
2019-01-12T23:08:58.852Z,4.20
2019-01-12T23:11:27.344Z,5.03
2019-01-12T23:13:55.767Z,2.70
2019-01-12T23:16:24.237Z,1.43
2019-01-12T23:18:52.341Z,0.90
2019-01-12T23:21:20.886Z,0.90
2019-01-12T23:23:49.076Z,1.40
2019-01-12T23:26:17.245Z,0.70
2019-01-12T23:28:45.719Z,0.80
2019-01-12T23:31:13.634Z,0.80
2019-01-12T23:33:41.615Z,0.70
2019-01-12T23:36:09.847Z,0.70
2019-01-12T23:38:38.255Z,1.07
2019-01-12T23:41:06.030Z,0.63
2019-01-12T23:46:29.502Z,0.73
2019-01-12T23:49:37.985Z,0.60
2019-01-12T23:52:06.451Z,0.70
2019-01-12T23:54:34.964Z,0.90
2019-01-12T23:57:04.031Z,0.70
2019-01-12T23:59:32.151Z,0.60
